Terminal Aerodrome Forecast
Issued by NWS

Home | Current Version | Previous Version | Text Only | Print | Product List | Glossary On
Versions: 1 2 3 4 5 6 7 8 9 10 11 12 13 14 15
000
FTUS43 KLSX 270520
TAFSUS
TAF
KSUS 270520Z 2706/2806 VRB03KT P6SM BKN040
     FM271100 VRB03KT 5SM BR BKN050
     FM271300 02004KT P6SM SCT040
     FM271500 13007KT P6SM BKN040
     FM280000 14007KT P6SM BKN040
      TEMPO 2801/2804 VRB35KT 2SM TSRA BKN035CB=

USA.gov is the U.S. government's official web portal to all federal, state and local government web resources and services.